sensor_id;sensor_type;location;lat;lon;timestamp;temperature;humidity
5086;DHT22;4715;51.660;7.082;2023-08-24T00:02:09;21.10;99.90
5086;DHT22;4715;51.660;7.082;2023-08-24T00:04:33;21.10;99.90
5086;DHT22;4715;51.660;7.082;2023-08-24T00:06:55;21.00;99.90
5086;DHT22;4715;51.660;7.082;2023-08-24T00:09:18;21.00;99.90
5086;DHT22;4715;51.660;7.082;2023-08-24T00:11:44;21.00;99.90
5086;DHT22;4715;51.660;7.082;2023-08-24T00:14:05;21.00;99.90
5086;DHT22;4715;51.660;7.082;2023-08-24T00:16:30;21.00;99.90
5086;DHT22;4715;51.660;7.082;2023-08-24T00:18:51;21.00;99.90
5086;DHT22;4715;51.660;7.082;2023-08-24T00:21:13;21.00;99.90
5086;DHT22;4715;51.660;7.082;2023-08-24T00:23:37;20.90;99.90
5086;DHT22;4715;51.660;7.082;2023-08-24T00:25:59;20.90;99.90
5086;DHT22;4715;51.660;7.082;2023-08-24T00:28:22;20.90;99.90
5086;DHT22;4715;51.660;7.082;2023-08-24T00:30:44;20.90;99.90
5086;DHT22;4715;51.660;7.082;2023-08-24T00:33:06;20.80;99.90
5086;DHT22;4715;51.660;7.082;2023-08-24T00:35:29;20.80;99.90
5086;DHT22;4715;51.660;7.082;2023-08-24T00:37:51;20.80;99.90
5086;DHT22;4715;51.660;7.082;2023-08-24T00:40:13;20.80;99.90
5086;DHT22;4715;51.660;7.082;2023-08-24T00:42:37;20.70;99.90
5086;DHT22;4715;51.660;7.082;2023-08-24T00:45:02;20.70;99.90
5086;DHT22;4715;51.660;7.082;2023-08-24T00:47:25;20.70;99.90
5086;DHT22;4715;51.660;7.082;2023-08-24T00:49:47;20.70;99.90
5086;DHT22;4715;51.660;7.082;2023-08-24T00:52:09;20.60;99.90
5086;DHT22;4715;51.660;7.082;2023-08-24T00:54:32;20.60;99.90
5086;DHT22;4715;51.660;7.082;2023-08-24T00:56:54;20.60;99.90
5086;DHT22;4715;51.660;7.082;2023-08-24T00:59:16;20.60;99.90
5086;DHT22;4715;51.660;7.082;2023-08-24T01:01:41;20.60;99.90
5086;DHT22;4715;51.660;7.082;2023-08-24T01:04:06;20.60;99.90
5086;DHT22;4715;51.660;7.082;2023-08-24T01:06:28;20.50;99.90
5086;DHT22;4715;51.660;7.082;2023-08-24T01:08:50;20.50;99.90
5086;DHT22;4715;51.660;7.082;2023-08-24T01:11:19;20.50;99.90
5086;DHT22;4715;51.660;7.082;2023-08-24T01:13:51;20.50;99.90
5086;DHT22;4715;51.660;7.082;2023-08-24T01:16:18;20.50;99.90
5086;DHT22;4715;51.660;7.082;2023-08-24T01:18:42;20.40;99.90
5086;DHT22;4715;51.660;7.082;2023-08-24T01:21:05;20.50;99.90
5086;DHT22;4715;51.660;7.082;2023-08-24T01:23:34;20.40;99.90
5086;DHT22;4715;51.660;7.082;2023-08-24T01:26:08;20.40;99.90
5086;DHT22;4715;51.660;7.082;2023-08-24T01:28:31;20.40;99.90
5086;DHT22;4715;51.660;7.082;2023-08-24T01:30:53;20.40;99.90
5086;DHT22;4715;51.660;7.082;2023-08-24T01:33:15;20.30;99.90
5086;DHT22;4715;51.660;7.082;2023-08-24T01:35:36;20.30;99.90
5086;DHT22;4715;51.660;7.082;2023-08-24T01:37:58;20.30;99.90
5086;DHT22;4715;51.660;7.082;2023-08-24T01:40:27;20.30;99.90
5086;DHT22;4715;51.660;7.082;2023-08-24T01:42:58;20.30;99.90
5086;DHT22;4715;51.660;7.082;2023-08-24T01:45:22;20.20;99.90
5086;DHT22;4715;51.660;7.082;2023-08-24T01:47:47;20.20;99.90
5086;DHT22;4715;51.660;7.082;2023-08-24T01:50:10;20.20;99.90
5086;DHT22;4715;51.660;7.082;2023-08-24T01:52:32;20.20;99.90
5086;DHT22;4715;51.660;7.082;2023-08-24T01:54:56;20.20;99.90
5086;DHT22;4715;51.660;7.082;2023-08-24T01:57:17;20.20;99.90
5086;DHT22;4715;51.660;7.082;2023-08-24T01:59:40;20.20;99.90
5086;DHT22;4715;51.660;7.082;2023-08-24T02:02:02;20.20;99.90
5086;DHT22;4715;51.660;7.082;2023-08-24T02:04:24;20.10;99.90
5086;DHT22;4715;51.660;7.082;2023-08-24T02:06:46;20.10;99.90
5086;DHT22;4715;51.660;7.082;2023-08-24T02:09:08;20.10;99.90
5086;DHT22;4715;51.660;7.082;2023-08-24T02:11:30;20.10;99.90
5086;DHT22;4715;51.660;7.082;2023-08-24T02:13:52;20.10;99.90
5086;DHT22;4715;51.660;7.082;2023-08-24T02:16:16;20.00;99.90
5086;DHT22;4715;51.660;7.082;2023-08-24T02:18:37;20.00;99.90
5086;DHT22;4715;51.660;7.082;2023-08-24T02:20:59;20.00;99.90
5086;DHT22;4715;51.660;7.082;2023-08-24T02:23:24;19.90;99.90
5086;DHT22;4715;51.660;7.082;2023-08-24T02:25:48;20.00;99.90
5086;DHT22;4715;51.660;7.082;2023-08-24T02:28:09;19.90;99.90
5086;DHT22;4715;51.660;7.082;2023-08-24T02:30:31;19.90;99.90
5086;DHT22;4715;51.660;7.082;2023-08-24T02:32:54;19.90;99.90
5086;DHT22;4715;51.660;7.082;2023-08-24T02:35:16;19.90;99.90
5086;DHT22;4715;51.660;7.082;2023-08-24T02:37:38;19.90;99.90
5086;DHT22;4715;51.660;7.082;2023-08-24T02:40:00;19.90;99.90
5086;DHT22;4715;51.660;7.082;2023-08-24T02:42:22;19.90;99.90
5086;DHT22;4715;51.660;7.082;2023-08-24T02:44:44;20.00;99.90
5086;DHT22;4715;51.660;7.082;2023-08-24T02:47:08;20.00;99.90
5086;DHT22;4715;51.660;7.082;2023-08-24T02:49:38;19.90;99.90
5086;DHT22;4715;51.660;7.082;2023-08-24T02:52:00;19.90;99.90
5086;DHT22;4715;51.660;7.082;2023-08-24T02:54:22;19.90;99.90
5086;DHT22;4715;51.660;7.082;2023-08-24T02:56:47;19.90;99.90
5086;DHT22;4715;51.660;7.082;2023-08-24T02:59:09;19.90;99.90
5086;DHT22;4715;51.660;7.082;2023-08-24T03:01:31;19.90;99.90
5086;DHT22;4715;51.660;7.082;2023-08-24T03:03:52;19.90;99.90
5086;DHT22;4715;51.660;7.082;2023-08-24T03:06:16;19.90;99.90
5086;DHT22;4715;51.660;7.082;2023-08-24T03:08:38;19.90;99.90
5086;DHT22;4715;51.660;7.082;2023-08-24T03:11:01;19.90;99.90
5086;DHT22;4715;51.660;7.082;2023-08-24T03:13:23;19.90;99.90
5086;DHT22;4715;51.660;7.082;2023-08-24T03:15:45;19.90;99.90
5086;DHT22;4715;51.660;7.082;2023-08-24T03:18:07;19.90;99.90
5086;DHT22;4715;51.660;7.082;2023-08-24T03:20:28;19.90;99.90
5086;DHT22;4715;51.660;7.082;2023-08-24T03:22:52;20.00;99.90
5086;DHT22;4715;51.660;7.082;2023-08-24T03:25:14;19.90;99.90
5086;DHT22;4715;51.660;7.082;2023-08-24T03:27:35;19.90;99.90
5086;DHT22;4715;51.660;7.082;2023-08-24T03:29:57;19.90;99.90
5086;DHT22;4715;51.660;7.082;2023-08-24T03:32:19;19.90;99.90
5086;DHT22;4715;51.660;7.082;2023-08-24T03:34:41;19.90;99.90
5086;DHT22;4715;51.660;7.082;2023-08-24T03:37:02;19.90;99.90
5086;DHT22;4715;51.660;7.082;2023-08-24T03:39:26;19.90;99.90
5086;DHT22;4715;51.660;7.082;2023-08-24T03:41:47;19.90;99.90
5086;DHT22;4715;51.660;7.082;2023-08-24T03:44:09;19.90;99.90
5086;DHT22;4715;51.660;7.082;2023-08-24T03:46:31;19.90;99.90
5086;DHT22;4715;51.660;7.082;2023-08-24T03:48:54;19.90;99.90
5086;DHT22;4715;51.660;7.082;2023-08-24T03:51:16;19.90;99.90
5086;DHT22;4715;51.660;7.082;2023-08-24T03:53:37;19.90;99.90
5086;DHT22;4715;51.660;7.082;2023-08-24T03:56:01;19.90;99.90
5086;DHT22;4715;51.660;7.082;2023-08-24T03:58:23;19.90;99.90
5086;DHT22;4715;51.660;7.082;2023-08-24T04:00:45;19.90;99.90
5086;DHT22;4715;51.660;7.082;2023-08-24T04:03:07;19.90;99.90
5086;DHT22;4715;51.660;7.082;2023-08-24T04:05:29;20.00;99.90
5086;DHT22;4715;51.660;7.082;2023-08-24T04:07:52;20.00;99.90
5086;DHT22;4715;51.660;7.082;2023-08-24T04:10:13;20.10;99.90
5086;DHT22;4715;51.660;7.082;2023-08-24T04:12:36;20.10;99.90
5086;DHT22;4715;51.660;7.082;2023-08-24T04:14:58;20.10;99.90
5086;DHT22;4715;51.660;7.082;2023-08-24T04:17:23;20.10;99.90
5086;DHT22;4715;51.660;7.082;2023-08-24T04:19:47;20.10;99.90
5086;DHT22;4715;51.660;7.082;2023-08-24T04:22:11;20.10;99.90
5086;DHT22;4715;51.660;7.082;2023-08-24T04:24:33;20.10;99.90
5086;DHT22;4715;51.660;7.082;2023-08-24T04:26:55;20.10;99.90
5086;DHT22;4715;51.660;7.082;2023-08-24T04:29:18;20.10;99.90
5086;DHT22;4715;51.660;7.082;2023-08-24T04:31:40;20.10;99.90
5086;DHT22;4715;51.660;7.082;2023-08-24T04:34:03;20.10;99.90
5086;DHT22;4715;51.660;7.082;2023-08-24T04:36:25;20.10;99.90
5086;DHT22;4715;51.660;7.082;2023-08-24T04:38:47;20.10;99.90
5086;DHT22;4715;51.660;7.082;2023-08-24T04:41:09;20.00;99.90
5086;DHT22;4715;51.660;7.082;2023-08-24T04:43:37;20.00;99.90
5086;DHT22;4715;51.660;7.082;2023-08-24T04:46:06;20.00;99.90
5086;DHT22;4715;51.660;7.082;2023-08-24T04:48:29;19.90;99.90
5086;DHT22;4715;51.660;7.082;2023-08-24T04:50:53;19.90;99.90
5086;DHT22;4715;51.660;7.082;2023-08-24T04:53:18;19.90;99.90
5086;DHT22;4715;51.660;7.082;2023-08-24T04:55:40;19.90;99.90
5086;DHT22;4715;51.660;7.082;2023-08-24T04:58:02;19.90;99.90
5086;DHT22;4715;51.660;7.082;2023-08-24T05:00:24;19.90;99.90
5086;DHT22;4715;51.660;7.082;2023-08-24T05:02:48;19.80;99.90
5086;DHT22;4715;51.660;7.082;2023-08-24T05:05:10;19.80;99.90
5086;DHT22;4715;51.660;7.082;2023-08-24T05:07:31;19.80;99.90
5086;DHT22;4715;51.660;7.082;2023-08-24T05:09:56;19.80;99.90
5086;DHT22;4715;51.660;7.082;2023-08-24T05:12:20;19.80;99.90
5086;DHT22;4715;51.660;7.082;2023-08-24T05:14:43;19.80;99.90
5086;DHT22;4715;51.660;7.082;2023-08-24T05:17:05;19.80;99.90
5086;DHT22;4715;51.660;7.082;2023-08-24T05:19:28;19.80;99.90
5086;DHT22;4715;51.660;7.082;2023-08-24T05:21:49;19.80;99.90
5086;DHT22;4715;51.660;7.082;2023-08-24T05:24:11;19.80;99.90
5086;DHT22;4715;51.660;7.082;2023-08-24T05:26:33;19.80;99.90
5086;DHT22;4715;51.660;7.082;2023-08-24T05:28:55;19.80;99.90
5086;DHT22;4715;51.660;7.082;2023-08-24T05:31:17;19.80;99.90
5086;DHT22;4715;51.660;7.082;2023-08-24T05:33:39;19.80;99.90
5086;DHT22;4715;51.660;7.082;2023-08-24T05:36:02;19.80;99.90
5086;DHT22;4715;51.660;7.082;2023-08-24T05:38:24;19.80;99.90
5086;DHT22;4715;51.660;7.082;2023-08-24T05:40:47;19.80;99.90
5086;DHT22;4715;51.660;7.082;2023-08-24T05:43:09;19.90;99.90
5086;DHT22;4715;51.660;7.082;2023-08-24T05:45:31;19.90;99.90
5086;DHT22;4715;51.660;7.082;2023-08-24T05:47:53;19.80;99.90
5086;DHT22;4715;51.660;7.082;2023-08-24T05:50:15;19.90;99.90
5086;DHT22;4715;51.660;7.082;2023-08-24T05:52:38;19.80;99.90
5086;DHT22;4715;51.660;7.082;2023-08-24T05:55:00;19.80;99.90
5086;DHT22;4715;51.660;7.082;2023-08-24T05:57:22;19.80;99.90
5086;DHT22;4715;51.660;7.082;2023-08-24T05:59:44;19.80;99.90
5086;DHT22;4715;51.660;7.082;2023-08-24T06:02:06;19.80;99.90
5086;DHT22;4715;51.660;7.082;2023-08-24T06:04:29;19.90;99.90
5086;DHT22;4715;51.660;7.082;2023-08-24T06:06:51;19.90;99.90
5086;DHT22;4715;51.660;7.082;2023-08-24T06:09:15;19.90;99.90
5086;DHT22;4715;51.660;7.082;2023-08-24T06:11:38;19.90;99.90
5086;DHT22;4715;51.660;7.082;2023-08-24T06:14:01;20.00;99.90
5086;DHT22;4715;51.660;7.082;2023-08-24T06:16:24;20.00;99.90
5086;DHT22;4715;51.660;7.082;2023-08-24T06:18:46;20.00;99.90
5086;DHT22;4715;51.660;7.082;2023-08-24T06:21:10;20.00;99.90
5086;DHT22;4715;51.660;7.082;2023-08-24T06:23:33;20.10;99.90
5086;DHT22;4715;51.660;7.082;2023-08-24T06:25:56;20.10;99.90
5086;DHT22;4715;51.660;7.082;2023-08-24T06:28:18;20.20;99.90
5086;DHT22;4715;51.660;7.082;2023-08-24T06:30:41;20.20;99.90
5086;DHT22;4715;51.660;7.082;2023-08-24T06:33:04;20.30;99.90
5086;DHT22;4715;51.660;7.082;2023-08-24T06:35:26;20.30;99.90
5086;DHT22;4715;51.660;7.082;2023-08-24T06:37:48;20.40;99.90
5086;DHT22;4715;51.660;7.082;2023-08-24T06:40:11;20.50;99.90
5086;DHT22;4715;51.660;7.082;2023-08-24T06:42:36;20.50;99.90
5086;DHT22;4715;51.660;7.082;2023-08-24T06:44:58;20.60;99.90
5086;DHT22;4715;51.660;7.082;2023-08-24T06:47:21;20.70;99.90
5086;DHT22;4715;51.660;7.082;2023-08-24T06:49:43;20.70;99.90
5086;DHT22;4715;51.660;7.082;2023-08-24T06:52:05;20.80;99.90
5086;DHT22;4715;51.660;7.082;2023-08-24T06:54:30;20.80;99.90
5086;DHT22;4715;51.660;7.082;2023-08-24T06:56:52;21.00;99.90
5086;DHT22;4715;51.660;7.082;2023-08-24T06:59:15;21.00;99.90
5086;DHT22;4715;51.660;7.082;2023-08-24T07:01:37;21.20;99.90
5086;DHT22;4715;51.660;7.082;2023-08-24T07:03:59;21.20;99.90
5086;DHT22;4715;51.660;7.082;2023-08-24T07:06:21;21.30;99.90
5086;DHT22;4715;51.660;7.082;2023-08-24T07:08:46;21.40;99.90
5086;DHT22;4715;51.660;7.082;2023-08-24T07:11:08;21.40;99.90
5086;DHT22;4715;51.660;7.082;2023-08-24T07:13:30;21.50;99.90
5086;DHT22;4715;51.660;7.082;2023-08-24T07:15:53;21.60;99.90
5086;DHT22;4715;51.660;7.082;2023-08-24T07:18:15;21.70;99.90
5086;DHT22;4715;51.660;7.082;2023-08-24T07:20:39;21.80;99.90
5086;DHT22;4715;51.660;7.082;2023-08-24T07:23:01;21.90;99.90
5086;DHT22;4715;51.660;7.082;2023-08-24T07:25:23;22.00;99.90
5086;DHT22;4715;51.660;7.082;2023-08-24T07:27:45;22.10;99.90
5086;DHT22;4715;51.660;7.082;2023-08-24T07:30:09;22.30;99.90
5086;DHT22;4715;51.660;7.082;2023-08-24T07:32:34;22.40;99.90
5086;DHT22;4715;51.660;7.082;2023-08-24T07:34:56;22.50;99.90
5086;DHT22;4715;51.660;7.082;2023-08-24T07:37:19;22.60;99.90
5086;DHT22;4715;51.660;7.082;2023-08-24T07:39:42;22.70;99.90
5086;DHT22;4715;51.660;7.082;2023-08-24T07:42:04;22.80;99.90
5086;DHT22;4715;51.660;7.082;2023-08-24T07:44:26;22.90;99.90
5086;DHT22;4715;51.660;7.082;2023-08-24T07:46:49;23.00;99.90
5086;DHT22;4715;51.660;7.082;2023-08-24T07:49:12;23.10;99.90
5086;DHT22;4715;51.660;7.082;2023-08-24T07:51:34;23.20;99.90
5086;DHT22;4715;51.660;7.082;2023-08-24T07:53:56;23.30;99.90
5086;DHT22;4715;51.660;7.082;2023-08-24T07:56:18;23.50;99.90
5086;DHT22;4715;51.660;7.082;2023-08-24T07:58:40;23.50;99.90
5086;DHT22;4715;51.660;7.082;2023-08-24T08:01:02;23.60;99.90
5086;DHT22;4715;51.660;7.082;2023-08-24T08:03:23;23.80;99.90
5086;DHT22;4715;51.660;7.082;2023-08-24T08:05:47;23.90;99.90
5086;DHT22;4715;51.660;7.082;2023-08-24T08:08:10;23.90;99.90
5086;DHT22;4715;51.660;7.082;2023-08-24T08:10:34;24.00;99.90
5086;DHT22;4715;51.660;7.082;2023-08-24T08:12:55;24.10;99.90
5086;DHT22;4715;51.660;7.082;2023-08-24T08:15:20;24.10;99.90
5086;DHT22;4715;51.660;7.082;2023-08-24T08:17:41;24.20;99.90
5086;DHT22;4715;51.660;7.082;2023-08-24T08:20:05;24.20;99.90
5086;DHT22;4715;51.660;7.082;2023-08-24T08:22:29;24.30;99.90
5086;DHT22;4715;51.660;7.082;2023-08-24T08:24:55;24.40;99.90
5086;DHT22;4715;51.660;7.082;2023-08-24T08:27:19;24.60;99.90
5086;DHT22;4715;51.660;7.082;2023-08-24T08:29:41;24.70;99.90
5086;DHT22;4715;51.660;7.082;2023-08-24T08:32:04;24.80;99.90
5086;DHT22;4715;51.660;7.082;2023-08-24T08:34:28;24.90;99.90
5086;DHT22;4715;51.660;7.082;2023-08-24T08:36:50;25.10;99.90
5086;DHT22;4715;51.660;7.082;2023-08-24T08:39:13;25.20;99.90
5086;DHT22;4715;51.660;7.082;2023-08-24T08:41:42;25.30;99.90
5086;DHT22;4715;51.660;7.082;2023-08-24T08:44:06;25.50;99.90
5086;DHT22;4715;51.660;7.082;2023-08-24T08:46:28;25.50;99.90
5086;DHT22;4715;51.660;7.082;2023-08-24T08:48:51;25.70;99.90
5086;DHT22;4715;51.660;7.082;2023-08-24T08:51:16;25.70;99.90
5086;DHT22;4715;51.660;7.082;2023-08-24T08:53:39;25.90;99.90
5086;DHT22;4715;51.660;7.082;2023-08-24T08:56:03;26.00;99.90
5086;DHT22;4715;51.660;7.082;2023-08-24T08:58:25;26.10;99.90
5086;DHT22;4715;51.660;7.082;2023-08-24T09:00:49;26.20;99.90
5086;DHT22;4715;51.660;7.082;2023-08-24T09:03:13;26.30;99.90
5086;DHT22;4715;51.660;7.082;2023-08-24T09:05:37;26.40;99.90
5086;DHT22;4715;51.660;7.082;2023-08-24T09:08:00;26.50;99.90
5086;DHT22;4715;51.660;7.082;2023-08-24T09:10:23;26.50;99.90
5086;DHT22;4715;51.660;7.082;2023-08-24T09:12:47;26.50;99.90
5086;DHT22;4715;51.660;7.082;2023-08-24T09:15:10;26.60;99.90
5086;DHT22;4715;51.660;7.082;2023-08-24T09:17:34;26.60;99.90
5086;DHT22;4715;51.660;7.082;2023-08-24T09:19:58;26.80;99.90
5086;DHT22;4715;51.660;7.082;2023-08-24T09:22:20;26.90;99.90
5086;DHT22;4715;51.660;7.082;2023-08-24T09:24:43;27.00;99.90
5086;DHT22;4715;51.660;7.082;2023-08-24T09:27:15;27.10;99.90
5086;DHT22;4715;51.660;7.082;2023-08-24T09:29:39;27.20;99.90
5086;DHT22;4715;51.660;7.082;2023-08-24T09:32:02;27.30;99.90
5086;DHT22;4715;51.660;7.082;2023-08-24T09:34:25;27.40;99.90
5086;DHT22;4715;51.660;7.082;2023-08-24T09:36:49;27.50;99.90
5086;DHT22;4715;51.660;7.082;2023-08-24T09:39:17;27.50;99.90
5086;DHT22;4715;51.660;7.082;2023-08-24T09:41:40;27.50;99.90
5086;DHT22;4715;51.660;7.082;2023-08-24T09:44:03;27.50;99.90
5086;DHT22;4715;51.660;7.082;2023-08-24T09:46:30;27.60;99.90
5086;DHT22;4715;51.660;7.082;2023-08-24T09:48:55;27.60;99.90
5086;DHT22;4715;51.660;7.082;2023-08-24T09:51:21;27.60;99.90
5086;DHT22;4715;51.660;7.082;2023-08-24T09:53:44;27.70;99.90
5086;DHT22;4715;51.660;7.082;2023-08-24T09:56:08;27.70;99.90
5086;DHT22;4715;51.660;7.082;2023-08-24T09:58:30;27.80;99.90
5086;DHT22;4715;51.660;7.082;2023-08-24T10:00:54;27.90;99.90
5086;DHT22;4715;51.660;7.082;2023-08-24T10:03:18;27.90;99.90
5086;DHT22;4715;51.660;7.082;2023-08-24T10:05:43;28.00;99.90
5086;DHT22;4715;51.660;7.082;2023-08-24T10:08:07;28.00;99.90
5086;DHT22;4715;51.660;7.082;2023-08-24T10:10:30;28.10;99.90
5086;DHT22;4715;51.660;7.082;2023-08-24T10:12:57;28.10;99.90
5086;DHT22;4715;51.660;7.082;2023-08-24T10:15:20;28.20;99.90
5086;DHT22;4715;51.660;7.082;2023-08-24T10:17:44;28.20;99.90
5086;DHT22;4715;51.660;7.082;2023-08-24T10:20:12;28.30;99.90
5086;DHT22;4715;51.660;7.082;2023-08-24T10:22:36;28.30;99.90
5086;DHT22;4715;51.660;7.082;2023-08-24T10:24:58;28.30;99.90
5086;DHT22;4715;51.660;7.082;2023-08-24T10:27:21;28.40;99.90
5086;DHT22;4715;51.660;7.082;2023-08-24T10:29:44;28.50;99.90
5086;DHT22;4715;51.660;7.082;2023-08-24T10:32:07;28.60;99.90
5086;DHT22;4715;51.660;7.082;2023-08-24T10:34:29;28.70;99.90
5086;DHT22;4715;51.660;7.082;2023-08-24T10:36:55;28.80;99.90
5086;DHT22;4715;51.660;7.082;2023-08-24T10:39:18;28.90;99.90
5086;DHT22;4715;51.660;7.082;2023-08-24T10:41:47;28.90;99.90
5086;DHT22;4715;51.660;7.082;2023-08-24T10:44:20;29.00;99.90
5086;DHT22;4715;51.660;7.082;2023-08-24T10:46:42;29.00;99.90
5086;DHT22;4715;51.660;7.082;2023-08-24T10:49:04;29.00;99.90
5086;DHT22;4715;51.660;7.082;2023-08-24T10:51:29;29.00;99.90
5086;DHT22;4715;51.660;7.082;2023-08-24T10:53:55;28.90;99.90
5086;DHT22;4715;51.660;7.082;2023-08-24T10:56:24;28.90;99.90
5086;DHT22;4715;51.660;7.082;2023-08-24T10:59:10;28.90;99.90
5086;DHT22;4715;51.660;7.082;2023-08-24T11:01:38;28.80;99.90
5086;DHT22;4715;51.660;7.082;2023-08-24T11:04:02;28.80;99.90
5086;DHT22;4715;51.660;7.082;2023-08-24T11:06:27;28.70;99.90
5086;DHT22;4715;51.660;7.082;2023-08-24T11:09:08;28.70;99.90
5086;DHT22;4715;51.660;7.082;2023-08-24T11:11:34;28.80;99.90
5086;DHT22;4715;51.660;7.082;2023-08-24T11:14:16;28.80;99.90
5086;DHT22;4715;51.660;7.082;2023-08-24T11:16:41;28.90;99.90
5086;DHT22;4715;51.660;7.082;2023-08-24T11:19:05;28.90;99.90
5086;DHT22;4715;51.660;7.082;2023-08-24T11:21:28;28.80;99.90
5086;DHT22;4715;51.660;7.082;2023-08-24T11:23:52;28.80;99.90
5086;DHT22;4715;51.660;7.082;2023-08-24T11:26:17;28.70;99.90
5086;DHT22;4715;51.660;7.082;2023-08-24T11:28:39;28.70;99.90
5086;DHT22;4715;51.660;7.082;2023-08-24T11:31:01;28.60;99.90
5086;DHT22;4715;51.660;7.082;2023-08-24T11:33:28;28.60;99.90
5086;DHT22;4715;51.660;7.082;2023-08-24T11:35:51;28.50;99.90
5086;DHT22;4715;51.660;7.082;2023-08-24T11:38:14;28.40;99.90
5086;DHT22;4715;51.660;7.082;2023-08-24T11:40:35;28.40;99.90
5086;DHT22;4715;51.660;7.082;2023-08-24T11:42:59;28.30;99.90
5086;DHT22;4715;51.660;7.082;2023-08-24T11:45:22;28.30;99.90
5086;DHT22;4715;51.660;7.082;2023-08-24T11:47:47;28.30;99.90
5086;DHT22;4715;51.660;7.082;2023-08-24T11:50:09;28.20;99.90
5086;DHT22;4715;51.660;7.082;2023-08-24T11:52:39;28.10;99.90
5086;DHT22;4715;51.660;7.082;2023-08-24T11:55:01;28.10;99.90
5086;DHT22;4715;51.660;7.082;2023-08-24T11:57:23;28.00;99.90
5086;DHT22;4715;51.660;7.082;2023-08-24T11:59:48;27.90;99.90
5086;DHT22;4715;51.660;7.082;2023-08-24T12:02:11;27.80;99.90
5086;DHT22;4715;51.660;7.082;2023-08-24T12:04:38;27.80;99.90
5086;DHT22;4715;51.660;7.082;2023-08-24T12:07:12;27.70;99.90
5086;DHT22;4715;51.660;7.082;2023-08-24T12:09:38;27.70;99.90
5086;DHT22;4715;51.660;7.082;2023-08-24T12:12:00;27.70;99.90
5086;DHT22;4715;51.660;7.082;2023-08-24T12:14:22;27.70;99.90
5086;DHT22;4715;51.660;7.082;2023-08-24T12:16:46;27.80;99.90
5086;DHT22;4715;51.660;7.082;2023-08-24T12:19:10;27.80;99.90
5086;DHT22;4715;51.660;7.082;2023-08-24T12:21:34;27.90;99.90
5086;DHT22;4715;51.660;7.082;2023-08-24T12:23:57;28.00;99.90
5086;DHT22;4715;51.660;7.082;2023-08-24T12:26:19;28.00;99.90
5086;DHT22;4715;51.660;7.082;2023-08-24T12:28:48;28.10;99.90
5086;DHT22;4715;51.660;7.082;2023-08-24T12:31:14;28.10;99.90
5086;DHT22;4715;51.660;7.082;2023-08-24T12:33:37;28.10;99.90
5086;DHT22;4715;51.660;7.082;2023-08-24T12:36:01;28.10;99.90
5086;DHT22;4715;51.660;7.082;2023-08-24T12:38:23;28.10;99.90
5086;DHT22;4715;51.660;7.082;2023-08-24T12:40:45;28.10;99.90
5086;DHT22;4715;51.660;7.082;2023-08-24T12:43:07;28.10;99.90
5086;DHT22;4715;51.660;7.082;2023-08-24T12:45:30;28.10;99.90
5086;DHT22;4715;51.660;7.082;2023-08-24T12:47:52;28.10;99.90
5086;DHT22;4715;51.660;7.082;2023-08-24T12:50:16;28.10;99.90
5086;DHT22;4715;51.660;7.082;2023-08-24T12:52:39;28.10;99.90
5086;DHT22;4715;51.660;7.082;2023-08-24T12:55:01;28.10;99.90
5086;DHT22;4715;51.660;7.082;2023-08-24T12:57:24;28.00;99.90
5086;DHT22;4715;51.660;7.082;2023-08-24T12:59:46;28.00;99.90
5086;DHT22;4715;51.660;7.082;2023-08-24T13:02:10;27.90;99.90
5086;DHT22;4715;51.660;7.082;2023-08-24T13:04:32;27.90;99.90
5086;DHT22;4715;51.660;7.082;2023-08-24T13:06:56;27.80;99.90
5086;DHT22;4715;51.660;7.082;2023-08-24T13:09:18;27.80;99.90
5086;DHT22;4715;51.660;7.082;2023-08-24T13:11:40;27.70;99.90
5086;DHT22;4715;51.660;7.082;2023-08-24T13:14:02;27.60;99.90
5086;DHT22;4715;51.660;7.082;2023-08-24T13:16:23;27.60;99.90
5086;DHT22;4715;51.660;7.082;2023-08-24T13:18:50;27.60;99.90
5086;DHT22;4715;51.660;7.082;2023-08-24T13:21:12;27.60;99.90
5086;DHT22;4715;51.660;7.082;2023-08-24T13:23:36;27.50;99.90
5086;DHT22;4715;51.660;7.082;2023-08-24T13:25:58;27.40;99.90
5086;DHT22;4715;51.660;7.082;2023-08-24T13:28:23;27.20;99.90
5086;DHT22;4715;51.660;7.082;2023-08-24T13:30:44;27.10;99.90
5086;DHT22;4715;51.660;7.082;2023-08-24T13:33:09;27.10;99.90
5086;DHT22;4715;51.660;7.082;2023-08-24T13:35:32;27.00;99.90
5086;DHT22;4715;51.660;7.082;2023-08-24T13:37:55;26.90;99.90
5086;DHT22;4715;51.660;7.082;2023-08-24T13:40:18;26.80;99.90
5086;DHT22;4715;51.660;7.082;2023-08-24T13:42:40;26.90;99.90
5086;DHT22;4715;51.660;7.082;2023-08-24T13:45:05;26.90;99.90
5086;DHT22;4715;51.660;7.082;2023-08-24T13:47:27;26.90;99.90
5086;DHT22;4715;51.660;7.082;2023-08-24T13:49:49;26.90;99.90
5086;DHT22;4715;51.660;7.082;2023-08-24T13:52:11;27.00;99.90
5086;DHT22;4715;51.660;7.082;2023-08-24T13:54:34;27.00;99.90
5086;DHT22;4715;51.660;7.082;2023-08-24T13:56:57;27.00;99.90
5086;DHT22;4715;51.660;7.082;2023-08-24T13:59:20;27.00;99.90
5086;DHT22;4715;51.660;7.082;2023-08-24T14:01:43;27.00;99.90
5086;DHT22;4715;51.660;7.082;2023-08-24T14:04:06;27.00;99.90
5086;DHT22;4715;51.660;7.082;2023-08-24T14:06:28;27.00;99.90
5086;DHT22;4715;51.660;7.082;2023-08-24T14:08:51;27.00;99.90
5086;DHT22;4715;51.660;7.082;2023-08-24T14:11:13;27.00;99.90
5086;DHT22;4715;51.660;7.082;2023-08-24T14:13:41;27.00;99.90
5086;DHT22;4715;51.660;7.082;2023-08-24T14:16:03;26.90;99.90
5086;DHT22;4715;51.660;7.082;2023-08-24T14:18:25;26.90;99.90
5086;DHT22;4715;51.660;7.082;2023-08-24T14:20:48;26.90;99.90
5086;DHT22;4715;51.660;7.082;2023-08-24T14:23:10;26.80;99.90
5086;DHT22;4715;51.660;7.082;2023-08-24T14:25:33;26.80;99.90
5086;DHT22;4715;51.660;7.082;2023-08-24T14:27:55;26.80;99.90
5086;DHT22;4715;51.660;7.082;2023-08-24T14:30:18;26.80;99.90
5086;DHT22;4715;51.660;7.082;2023-08-24T14:32:40;26.70;99.90
5086;DHT22;4715;51.660;7.082;2023-08-24T14:35:03;26.70;99.90
5086;DHT22;4715;51.660;7.082;2023-08-24T14:37:25;26.60;99.90
5086;DHT22;4715;51.660;7.082;2023-08-24T14:39:47;26.60;99.90
5086;DHT22;4715;51.660;7.082;2023-08-24T14:42:09;26.60;99.90
5086;DHT22;4715;51.660;7.082;2023-08-24T14:44:31;26.60;99.90
5086;DHT22;4715;51.660;7.082;2023-08-24T14:46:54;26.60;99.90
5086;DHT22;4715;51.660;7.082;2023-08-24T14:49:16;26.60;99.90
5086;DHT22;4715;51.660;7.082;2023-08-24T14:51:40;26.60;99.90
5086;DHT22;4715;51.660;7.082;2023-08-24T14:54:02;26.50;99.90
5086;DHT22;4715;51.660;7.082;2023-08-24T14:56:24;26.50;99.90
5086;DHT22;4715;51.660;7.082;2023-08-24T14:58:46;26.40;99.90
5086;DHT22;4715;51.660;7.082;2023-08-24T15:01:08;26.40;99.90
5086;DHT22;4715;51.660;7.082;2023-08-24T15:03:31;26.40;99.90
5086;DHT22;4715;51.660;7.082;2023-08-24T15:05:58;26.40;99.90
5086;DHT22;4715;51.660;7.082;2023-08-24T15:08:20;26.40;99.90
5086;DHT22;4715;51.660;7.082;2023-08-24T15:10:42;26.40;99.90
5086;DHT22;4715;51.660;7.082;2023-08-24T15:13:04;26.40;99.90
5086;DHT22;4715;51.660;7.082;2023-08-24T15:15:26;26.30;99.90
5086;DHT22;4715;51.660;7.082;2023-08-24T15:17:48;26.30;99.90
5086;DHT22;4715;51.660;7.082;2023-08-24T15:20:11;26.30;99.90
5086;DHT22;4715;51.660;7.082;2023-08-24T15:22:34;26.20;99.90
5086;DHT22;4715;51.660;7.082;2023-08-24T15:24:57;26.20;99.90
5086;DHT22;4715;51.660;7.082;2023-08-24T15:27:19;26.20;99.90
5086;DHT22;4715;51.660;7.082;2023-08-24T15:29:41;26.10;99.90
5086;DHT22;4715;51.660;7.082;2023-08-24T15:32:04;26.10;99.90
5086;DHT22;4715;51.660;7.082;2023-08-24T15:34:26;26.10;99.90
5086;DHT22;4715;51.660;7.082;2023-08-24T15:36:51;26.10;99.90